メインページ
METAR-TAF:

METAR-TAF

空港 :

バーリントン/ マウントバーノン, ワシントン, アメリカ合衆国

緯度: 48-28-15N, 経度: 122-25-15W, 海抜: 44m

現時点の気象観測

当レポートは24分前の12:15(UTC)に作成
北/北東の風 3kt
気温 4°C
湿度 93%
気圧 1030 hPa
視程: 16.1km
高度2500ftの曇り

METAR: KBVS 221215Z AUTO 02003KT 10SM OVC025 04/03 A3043 RMK A01

時間: 05:39 (12:39 UTC)


TAF: 見つかりません

4,000以上の空港の気象観測と天気予報(METAR報とTAF報)

利用可能な観測所は地図上に黄色い丸と赤い丸で示す。

丸の上にカーソルを重ねると観測所名を参照できる。

次にクリックすると気象観測と天気予報を参照できる。

マップの切り替え:黒色「×」印の緑ボタンをクリックして拡大、「-」印の緑ボタンをクリックして縮小、緑色の三角印をクリックして隣りの地図に切り替え


METAR-TAF: